Time;durP1;ratioP1;P1;durP2;ratioP2;P2;SDS_P1;SDS_P2;PMS_P1;PMS_P2;Temp;Humidity;BMP_temperature;BMP_pressure;BME280_temperature;BME280_humidity;BME280_pressure;Samples;Min_cycle;Max_cycle;Signal;HPM_P1;HPM_P2
2022/01/27 00:07:32;;;;;;;28.70;18.80;;;2.60;99.90;;;;;;10351941;28;20217;-75
2022/01/27 00:12:33;;;;;;;29.83;18.83;;;2.60;99.90;;;;;;10345407;28;20677;-76
2022/01/27 00:17:38;;;;;;;27.23;19.70;;;2.60;99.90;;;;;;10350694;28;20296;-77
2022/01/27 00:22:39;;;;;;;25.60;17.53;;;2.60;99.90;;;;;;10347206;28;20222;-75
2022/01/27 00:27:40;;;;;;;27.23;18.37;;;2.70;99.90;;;;;;10349421;28;20222;-77
2022/01/27 00:32:41;;;;;;;28.70;18.07;;;2.70;99.90;;;;;;10354693;28;20213;-76
2022/01/27 00:37:41;;;;;;;27.97;18.57;;;2.70;99.90;;;;;;10337261;28;20210;-75
2022/01/27 00:42:42;;;;;;;26.60;17.37;;;2.60;99.90;;;;;;10356304;28;20224;-76
2022/01/27 00:47:43;;;;;;;28.17;18.03;;;2.60;99.90;;;;;;10371474;28;20271;-76
2022/01/27 00:52:50;;;;;;;27.13;18.57;;;2.50;99.90;;;;;;10354540;28;20217;-75
2022/01/27 01:07:56;;;;;;;30.37;18.70;;;2.40;99.90;;;;;;10362957;28;20847;-74
2022/01/27 01:18:18;;;;;;;27.93;17.93;;;2.40;99.90;;;;;;10356572;28;20240;-74
2022/01/27 01:34:20;;;;;;;28.00;18.40;;;2.40;99.90;;;;;;10353456;28;20316;-77
2022/01/27 01:39:23;;;;;;;25.73;16.80;;;2.40;99.90;;;;;;10352397;28;20229;-75
2022/01/27 01:44:25;;;;;;;24.37;17.03;;;2.40;99.90;;;;;;10350914;28;20230;-75
2022/01/27 01:49:26;;;;;;;30.57;18.97;;;2.40;99.90;;;;;;10355375;28;20232;-75
2022/01/27 01:54:27;;;;;;;28.47;18.10;;;2.40;99.90;;;;;;10353197;28;20222;-75
2022/01/27 01:59:28;;;;;;;31.83;18.60;;;2.40;99.90;;;;;;10356168;28;20593;-76
2022/01/27 02:04:28;;;;;;;30.87;18.53;;;2.40;99.90;;;;;;10359824;28;20212;-74
2022/01/27 02:19:56;;;;;;;30.57;19.40;;;2.50;99.90;;;;;;10353901;28;20214;-75
2022/01/27 02:24:56;;;;;;;30.20;19.33;;;2.50;99.90;;;;;;10355287;28;20650;-75
2022/01/27 02:29:57;;;;;;;31.93;19.60;;;2.40;99.90;;;;;;10351823;28;20272;-74
2022/01/27 02:35:02;;;;;;;32.33;19.40;;;2.40;99.90;;;;;;10353887;28;20235;-75
2022/01/27 02:40:05;;;;;;;29.80;20.10;;;2.40;99.90;;;;;;10350529;28;20225;-76
2022/01/27 02:45:13;;;;;;;33.47;20.53;;;2.40;99.90;;;;;;10344813;28;20233;-74
2022/01/27 02:50:14;;;;;;;34.67;20.97;;;2.30;99.90;;;;;;10352043;28;20238;-75
2022/01/27 02:55:15;;;;;;;33.00;21.60;;;2.30;99.90;;;;;;10356832;28;20671;-75
2022/01/27 03:00:16;;;;;;;35.30;20.83;;;2.30;99.90;;;;;;10357466;28;20599;-76
2022/01/27 03:05:16;;;;;;;35.93;20.50;;;2.30;99.90;;;;;;10357855;28;20191;-75
2022/01/27 03:10:19;;;;;;;34.47;20.90;;;2.30;99.90;;;;;;10357924;28;20192;-74
2022/01/27 03:15:19;;;;;;;37.47;21.40;;;2.30;99.90;;;;;;10351322;28;20886;-74
2022/01/27 03:20:20;;;;;;;39.17;21.83;;;2.30;99.90;;;;;;10351602;28;20276;-75
2022/01/27 03:25:20;;;;;;;36.87;21.77;;;2.30;99.90;;;;;;10348640;28;20273;-76
2022/01/27 03:30:21;;;;;;;37.07;20.10;;;2.30;99.90;;;;;;10363281;28;20268;-74
2022/01/27 03:35:22;;;;;;;34.67;20.60;;;2.30;99.90;;;;;;10351343;28;20214;-75
2022/01/27 03:40:23;;;;;;;38.97;22.07;;;2.30;99.90;;;;;;10354887;28;26200;-75
2022/01/27 03:45:23;;;;;;;40.50;22.77;;;2.30;99.90;;;;;;10360099;28;20229;-75
2022/01/27 03:50:24;;;;;;;39.07;22.37;;;2.40;99.90;;;;;;10346188;28;20232;-76
2022/01/27 03:55:25;;;;;;;39.13;22.50;;;2.40;99.90;;;;;;10348938;28;20882;-74
2022/01/27 04:00:25;;;;;;;38.03;22.20;;;2.30;99.90;;;;;;10352998;28;20313;-74
2022/01/27 04:05:32;;;;;;;38.33;21.60;;;2.30;99.90;;;;;;10351869;28;20221;-75
2022/01/27 04:10:34;;;;;;;40.00;22.37;;;2.30;99.90;;;;;;10346910;28;20267;-76
2022/01/27 04:15:37;;;;;;;39.83;22.00;;;2.40;99.90;;;;;;10346102;28;20233;-75
2022/01/27 04:20:39;;;;;;;38.17;23.80;;;2.30;99.90;;;;;;10350863;28;20217;-75
2022/01/27 04:25:40;;;;;;;39.67;22.93;;;2.30;99.90;;;;;;10345368;28;20214;-75
2022/01/27 04:30:40;;;;;;;42.30;24.23;;;2.30;99.90;;;;;;10343443;28;20222;-74
2022/01/27 04:35:47;;;;;;;39.57;23.00;;;2.30;99.90;;;;;;10350813;28;20838;-75
2022/01/27 04:46:06;;;;;;;42.30;22.97;;;2.30;99.90;;;;;;10361634;28;20221;-75
2022/01/27 04:51:11;;;;;;;41.70;24.03;;;2.40;99.90;;;;;;10362931;28;20218;-76
2022/01/27 04:56:13;;;;;;;35.77;21.60;;;2.30;99.90;;;;;;10357743;28;20225;-76
2022/01/27 05:01:16;;;;;;;39.20;22.33;;;2.40;99.90;;;;;;10370402;28;20225;-76
2022/01/27 05:06:17;;;;;;;37.07;21.57;;;2.40;99.90;;;;;;10364655;28;20224;-76
2022/01/27 05:11:31;;;;;;;39.17;22.40;;;2.30;99.90;;;;;;10357135;28;20213;-75
2022/01/27 05:16:32;;;;;;;34.27;20.10;;;2.30;99.90;;;;;;10353375;28;20233;-76
2022/01/27 05:21:33;;;;;;;39.47;20.63;;;2.20;99.90;;;;;;10361000;28;20582;-76
2022/01/27 05:26:34;;;;;;;36.00;20.77;;;2.20;99.90;;;;;;10357413;28;20225;-75
2022/01/27 05:31:36;;;;;;;33.97;19.47;;;2.10;99.90;;;;;;10350890;28;20276;-75
2022/01/27 05:36:40;;;;;;;34.77;19.50;;;2.10;99.90;;;;;;10359874;28;20276;-75
2022/01/27 05:41:42;;;;;;;30.53;18.57;;;2.10;99.90;;;;;;10351908;28;20221;-76
2022/01/27 05:46:43;;;;;;;29.50;18.00;;;2.10;99.90;;;;;;10351881;28;20218;-74
2022/01/27 05:51:44;;;;;;;29.33;17.93;;;2.10;99.90;;;;;;10368020;28;20217;-74
2022/01/27 05:56:45;;;;;;;29.60;17.47;;;2.10;99.90;;;;;;10366244;28;20237;-76
2022/01/27 06:01:45;;;;;;;27.83;17.13;;;2.10;99.90;;;;;;10359721;28;20232;-75
2022/01/27 06:06:49;;;;;;;29.03;16.87;;;2.10;99.90;;;;;;10348877;28;20301;-75
2022/01/27 06:11:50;;;;;;;28.33;17.60;;;2.10;99.90;;;;;;10350142;28;20804;-74
2022/01/27 06:16:51;;;;;;;30.70;17.93;;;2.10;99.90;;;;;;10356296;28;20366;-74
2022/01/27 06:21:51;;;;;;;30.03;17.53;;;2.10;99.90;;;;;;10351141;28;20689;-77
2022/01/27 06:26:52;;;;;;;29.30;17.10;;;2.10;99.90;;;;;;10348224;28;20213;-75
2022/01/27 06:31:53;;;;;;;30.87;17.93;;;2.20;99.90;;;;;;10349584;28;20249;-75
2022/01/27 06:36:53;;;;;;;33.53;18.40;;;2.20;99.90;;;;;;10352774;28;20276;-74
2022/01/27 06:41:54;;;;;;;30.10;18.13;;;2.10;99.90;;;;;;10347288;28;20598;-76
2022/01/27 06:46:54;;;;;;;27.83;16.20;;;2.10;99.90;;;;;;10354466;28;20225;-74
2022/01/27 06:51:55;;;;;;;27.50;17.20;;;2.10;99.90;;;;;;10349226;28;20214;-74
2022/01/27 06:56:55;;;;;;;28.20;17.33;;;2.20;99.90;;;;;;10353607;28;20229;-73
2022/01/27 07:01:56;;;;;;;26.33;15.43;;;2.20;99.90;;;;;;10348337;28;20241;-74
2022/01/27 07:06:57;;;;;;;28.30;16.57;;;2.20;99.90;;;;;;10354478;28;20605;-75
2022/01/27 07:11:59;;;;;;;25.60;16.40;;;2.20;99.90;;;;;;10359780;28;20233;-75
2022/01/27 07:17:00;;;;;;;32.87;18.23;;;2.20;99.90;;;;;;10352385;28;20243;-76
2022/01/27 07:22:01;;;;;;;41.50;22.00;;;2.20;99.90;;;;;;10347243;28;20669;-74
2022/01/27 07:27:02;;;;;;;42.23;21.87;;;2.30;99.90;;;;;;10351607;28;20248;-75
2022/01/27 07:32:03;;;;;;;27.63;17.17;;;2.30;99.90;;;;;;10348827;28;20604;-74
2022/01/27 07:37:03;;;;;;;32.63;18.27;;;2.30;99.90;;;;;;10355991;28;20233;-73
2022/01/27 07:42:04;;;;;;;33.67;17.30;;;2.20;99.90;;;;;;10351264;28;20309;-75
2022/01/27 07:47:05;;;;;;;31.23;17.60;;;2.10;99.90;;;;;;10348293;28;20236;-74
2022/01/27 07:52:06;;;;;;;28.73;18.10;;;2.10;99.90;;;;;;10351435;28;20312;-74
2022/01/27 07:57:06;;;;;;;29.07;17.90;;;2.00;99.90;;;;;;10347608;28;20247;-76
2022/01/27 08:02:07;;;;;;;31.50;18.77;;;2.00;99.90;;;;;;10354598;28;20277;-76
2022/01/27 08:07:08;;;;;;;33.40;19.13;;;1.90;99.90;;;;;;10344971;28;20236;-75
2022/01/27 08:12:09;;;;;;;35.30;19.80;;;1.90;99.90;;;;;;10351435;28;20224;-76
2022/01/27 08:17:10;;;;;;;32.97;19.60;;;1.90;99.90;;;;;;10351973;28;20233;-75
2022/01/27 08:22:11;;;;;;;29.53;17.87;;;1.90;99.90;;;;;;10372774;28;20213;-75
2022/01/27 08:27:15;;;;;;;32.60;17.43;;;1.90;99.90;;;;;;10374078;28;20216;-75
2022/01/27 08:32:19;;;;;;;30.77;17.77;;;1.90;99.90;;;;;;10374092;28;20216;-75
2022/01/27 08:37:21;;;;;;;26.30;16.23;;;2.00;99.90;;;;;;10363382;28;20232;-77
2022/01/27 08:42:22;;;;;;;30.83;16.57;;;2.00;99.90;;;;;;10370902;28;20229;-77
2022/01/27 08:47:22;;;;;;;26.50;14.73;;;2.00;99.90;;;;;;10356441;28;20228;-75
2022/01/27 08:52:24;;;;;;;26.07;15.57;;;1.90;99.90;;;;;;10360838;28;20597;-75
2022/01/27 08:57:25;;;;;;;27.50;15.83;;;1.80;99.90;;;;;;10355202;28;20328;-76
2022/01/27 09:02:25;;;;;;;27.20;16.20;;;1.80;99.90;;;;;;10350972;28;20304;-74
2022/01/27 09:07:26;;;;;;;28.83;16.50;;;1.80;99.90;;;;;;10364115;28;20304;-76
2022/01/27 09:12:26;;;;;;;27.97;15.87;;;1.80;99.90;;;;;;10362673;28;20312;-75
2022/01/27 09:17:28;;;;;;;30.20;16.27;;;1.80;99.90;;;;;;10356845;28;20241;-77
2022/01/27 09:22:28;;;;;;;28.80;15.80;;;1.90;99.90;;;;;;10356543;28;20232;-76
2022/01/27 09:27:29;;;;;;;29.53;15.70;;;1.90;99.90;;;;;;10350798;28;20741;-75
2022/01/27 09:32:29;;;;;;;28.20;15.70;;;1.90;99.90;;;;;;10355244;28;20671;-76
2022/01/27 09:37:30;;;;;;;27.27;15.40;;;1.90;99.90;;;;;;10348804;28;20291;-75
2022/01/27 09:42:32;;;;;;;26.43;15.00;;;1.90;99.90;;;;;;10359182;28;20233;-75
2022/01/27 09:47:35;;;;;;;30.30;16.30;;;2.00;99.90;;;;;;10350617;28;20218;-76
2022/01/27 09:52:39;;;;;;;30.27;15.90;;;2.00;99.90;;;;;;10358259;28;20221;-76
2022/01/27 09:57:39;;;;;;;26.30;14.73;;;2.10;99.90;;;;;;10349402;28;20241;-76
2022/01/27 10:02:59;;;;;;;27.30;15.17;;;2.10;99.90;;;;;;10348014;28;20596;-76
2022/01/27 10:08:08;;;;;;;26.13;15.20;;;2.20;99.90;;;;;;10355682;28;20220;-75
2022/01/27 10:13:47;;;;;;;26.17;14.93;;;2.10;99.90;;;;;;10356145;28;20232;-77
2022/01/27 10:18:47;;;;;;;31.00;15.00;;;2.20;99.90;;;;;;10350387;28;20220;-76
2022/01/27 10:23:51;;;;;;;27.77;15.23;;;2.20;99.90;;;;;;10362209;28;20812;-76
2022/01/27 10:34:07;;;;;;;30.07;14.97;;;2.40;99.90;;;;;;10347431;28;20236;-76
2022/01/27 10:39:11;;;;;;;26.33;15.60;;;2.50;99.90;;;;;;10356636;28;20220;-76
2022/01/27 10:44:18;;;;;;;26.30;14.90;;;2.50;99.90;;;;;;10354979;28;20289;-76
2022/01/27 10:49:29;;;;;;;27.70;15.00;;;2.50;99.90;;;;;;10361072;28;20348;-75
2022/01/27 10:54:37;;;;;;;28.47;14.30;;;2.40;99.90;;;;;;10354979;28;20652;-74
2022/01/27 10:59:39;;;;;;;26.67;14.30;;;2.50;99.90;;;;;;10345890;28;20229;-73
2022/01/27 11:04:42;;;;;;;22.73;13.03;;;2.70;99.90;;;;;;10347748;28;20218;-74
2022/01/27 11:09:44;;;;;;;24.10;13.33;;;2.70;99.90;;;;;;10376033;28;20213;-75
2022/01/27 11:14:50;;;;;;;20.87;11.87;;;2.70;99.90;;;;;;10354243;28;20236;-75
2022/01/27 11:30:24;;;;;;;21.77;11.97;;;2.80;99.90;;;;;;10357563;28;20221;-76
2022/01/27 11:35:26;;;;;;;18.80;10.47;;;2.80;99.90;;;;;;10348133;28;20230;-75
2022/01/27 11:40:37;;;;;;;18.53;11.27;;;2.80;99.90;;;;;;10345120;28;20228;-75
2022/01/27 11:45:51;;;;;;;17.20;10.57;;;3.00;99.90;;;;;;10345394;28;20245;-75
2022/01/27 11:51:06;;;;;;;21.40;10.47;;;3.20;99.90;;;;;;10345439;28;20225;-75
2022/01/27 11:56:28;;;;;;;19.27;10.47;;;3.40;99.90;;;;;;10347099;28;20252;-76
2022/01/27 12:01:31;;;;;;;20.80;10.93;;;3.30;99.90;;;;;;10355159;28;20264;-75
2022/01/27 12:06:33;;;;;;;16.37;9.90;;;3.20;99.90;;;;;;10359294;28;20671;-76
2022/01/27 12:11:49;;;;;;;16.07;10.43;;;3.00;99.90;;;;;;10352363;28;20935;-75
2022/01/27 12:17:08;;;;;;;18.27;9.60;;;2.90;99.90;;;;;;10341088;28;20237;-75
2022/01/27 12:22:11;;;;;;;16.70;9.63;;;2.80;99.90;;;;;;10349705;28;20229;-75
2022/01/27 12:27:18;;;;;;;18.07;10.40;;;2.70;99.90;;;;;;10351112;28;20225;-75
2022/01/27 12:32:24;;;;;;;18.50;10.40;;;2.80;99.90;;;;;;10355201;28;20217;-76
2022/01/27 12:37:38;;;;;;;20.63;10.13;;;2.80;99.90;;;;;;10354479;28;20295;-75
2022/01/27 12:42:55;;;;;;;21.10;10.37;;;2.90;99.90;;;;;;10346514;28;20218;-76
2022/01/27 12:47:59;;;;;;;20.50;9.97;;;2.80;99.90;;;;;;10348383;28;20221;-75
2022/01/27 12:53:03;;;;;;;17.83;10.43;;;2.70;99.90;;;;;;10345000;28;20210;-74
2022/01/27 12:58:09;;;;;;;20.97;11.00;;;2.70;99.90;;;;;;10351592;28;20267;-75
2022/01/27 13:03:10;;;;;;;20.23;11.87;;;2.60;99.90;;;;;;10365263;28;20218;-74
2022/01/27 13:08:13;;;;;;;20.60;11.67;;;2.60;99.90;;;;;;10354780;28;20299;-75
2022/01/27 13:13:22;;;;;;;24.97;13.10;;;2.50;99.90;;;;;;10356441;28;20551;-74
2022/01/27 13:18:38;;;;;;;21.67;12.97;;;2.50;99.90;;;;;;10357855;28;20677;-75
2022/01/27 13:23:45;;;;;;;26.50;13.77;;;2.60;99.90;;;;;;10359215;28;20229;-75
2022/01/27 13:28:50;;;;;;;25.40;14.70;;;2.60;99.90;;;;;;10351364;28;20214;-75
2022/01/27 13:33:51;;;;;;;28.17;14.67;;;2.60;99.90;;;;;;10364438;28;20264;-75
2022/01/27 13:39:10;;;;;;;25.23;14.07;;;2.70;99.90;;;;;;10351555;28;20256;-75
2022/01/27 13:44:18;;;;;;;27.73;15.43;;;2.60;99.90;;;;;;10352459;28;20236;-75
2022/01/27 13:49:27;;;;;;;31.00;15.80;;;2.60;99.90;;;;;;10353307;28;20230;-75
2022/01/27 13:54:31;;;;;;;26.50;13.67;;;2.60;99.90;;;;;;10350609;28;20232;-75
2022/01/27 14:00:08;;;;;;;26.77;14.77;;;2.70;99.90;;;;;;10359091;28;20260;-74
2022/01/27 14:05:15;;;;;;;26.57;14.87;;;2.70;99.90;;;;;;10359627;28;20218;-74
2022/01/27 14:10:22;;;;;;;25.93;15.00;;;2.80;99.90;;;;;;10352532;28;20194;-75
2022/01/27 14:15:55;;;;;;;30.97;16.40;;;2.70;99.90;;;;;;10349306;28;20716;-74
2022/01/27 14:20:58;;;;;;;30.50;16.73;;;2.60;99.90;;;;;;10351312;28;20611;-75
2022/01/27 14:26:07;;;;;;;27.17;15.43;;;2.60;99.90;;;;;;10354360;28;20275;-74
2022/01/27 14:31:07;;;;;;;28.97;15.47;;;2.70;99.90;;;;;;10346683;28;20605;-75
2022/01/27 14:36:08;;;;;;;27.70;16.23;;;2.70;99.90;;;;;;10353207;28;20229;-75
2022/01/27 14:41:10;;;;;;;28.07;15.17;;;2.70;99.90;;;;;;10353757;28;20222;-76
2022/01/27 14:46:14;;;;;;;28.87;15.57;;;2.80;99.90;;;;;;10347547;28;20288;-74
2022/01/27 14:51:18;;;;;;;29.57;16.00;;;2.80;99.90;;;;;;10355448;28;20221;-74
2022/01/27 14:56:22;;;;;;;30.80;16.30;;;2.70;99.90;;;;;;10351007;28;20233;-75
2022/01/27 15:01:24;;;;;;;30.00;16.60;;;2.70;99.90;;;;;;10342272;28;20214;-75
2022/01/27 15:06:26;;;;;;;29.73;16.13;;;2.70;99.90;;;;;;10351691;28;20309;-75
2022/01/27 15:11:26;;;;;;;31.80;16.67;;;2.70;99.90;;;;;;10353994;28;20276;-75
2022/01/27 15:21:52;;;;;;;38.80;18.77;;;2.70;99.90;;;;;;10347779;28;20267;-75
2022/01/27 15:26:53;;;;;;;33.50;17.33;;;2.60;99.90;;;;;;10345240;28;20222;-75
2022/01/27 15:31:54;;;;;;;29.80;16.80;;;2.60;99.90;;;;;;10358882;28;20218;-76
2022/01/27 15:36:55;;;;;;;33.60;18.47;;;2.60;99.90;;;;;;10352691;28;20229;-75
2022/01/27 15:41:59;;;;;;;35.10;18.90;;;2.60;99.90;;;;;;10345840;28;20213;-75
2022/01/27 15:46:59;;;;;;;31.73;18.23;;;2.60;99.90;;;;;;10345488;28;20226;-75
2022/01/27 15:52:00;;;;;;;36.00;19.80;;;2.60;99.90;;;;;;10350306;28;20221;-75
2022/01/27 15:57:02;;;;;;;30.40;18.53;;;2.70;99.90;;;;;;10347055;28;20229;-75
2022/01/27 16:02:03;;;;;;;38.10;17.80;;;2.70;99.90;;;;;;10350183;28;20317;-74
2022/01/27 16:07:04;;;;;;;36.97;18.60;;;2.70;99.90;;;;;;10347425;28;20221;-75
2022/01/27 16:12:05;;;;;;;34.37;17.10;;;2.70;99.90;;;;;;10348339;28;20221;-74
2022/01/27 16:17:06;;;;;;;33.57;18.27;;;2.60;99.90;;;;;;10350951;28;20713;-75
2022/01/27 16:22:07;;;;;;;33.17;17.30;;;2.60;99.90;;;;;;10348889;28;20217;-74
2022/01/27 16:27:08;;;;;;;31.40;18.03;;;2.60;99.90;;;;;;10351382;28;20218;-75
2022/01/27 16:32:08;;;;;;;33.20;18.13;;;2.60;99.90;;;;;;10344455;28;20214;-75
2022/01/27 16:37:09;;;;;;;31.67;17.67;;;2.60;99.90;;;;;;10358791;28;20213;-75
2022/01/27 16:42:10;;;;;;;31.87;17.07;;;2.60;99.90;;;;;;10353906;28;20936;-76
2022/01/27 16:47:11;;;;;;;32.57;16.97;;;2.60;99.90;;;;;;10355401;28;20251;-74
2022/01/27 16:52:14;;;;;;;29.77;17.13;;;2.60;99.90;;;;;;10357875;28;20232;-75
2022/01/27 16:57:15;;;;;;;28.77;17.30;;;2.70;99.90;;;;;;10367484;28;20249;-75
2022/01/27 17:02:16;;;;;;;26.80;16.13;;;2.60;99.90;;;;;;10362589;28;20245;-76
2022/01/27 17:07:17;;;;;;;23.70;15.77;;;2.70;99.90;;;;;;10360757;28;20275;-75
2022/01/27 17:12:17;;;;;;;28.40;16.67;;;2.70;99.90;;;;;;10363110;28;20229;-75
2022/01/27 17:17:19;;;;;;;30.03;17.80;;;2.70;99.90;;;;;;10365730;28;20229;-74
2022/01/27 17:22:20;;;;;;;25.67;15.93;;;2.80;99.90;;;;;;10356613;28;20233;-75
2022/01/27 17:27:21;;;;;;;24.30;15.13;;;2.80;99.90;;;;;;10367098;28;20708;-75
2022/01/27 17:32:21;;;;;;;27.50;15.63;;;2.80;99.90;;;;;;10344340;28;20313;-75
2022/01/27 17:37:24;;;;;;;27.67;16.53;;;2.80;99.90;;;;;;10362523;28;20232;-75
2022/01/27 17:42:25;;;;;;;27.27;16.03;;;2.90;99.90;;;;;;10351835;28;20570;-76
2022/01/27 17:47:28;;;;;;;23.20;14.53;;;2.90;99.90;;;;;;10348892;28;20232;-76
2022/01/27 17:52:29;;;;;;;20.60;14.90;;;2.90;99.90;;;;;;10355083;28;20222;-75
2022/01/27 17:57:30;;;;;;;24.33;14.87;;;3.00;99.90;;;;;;10358275;28;20237;-75
2022/01/27 18:02:31;;;;;;;26.37;14.87;;;3.00;99.90;;;;;;10351677;28;20315;-76
2022/01/27 18:07:31;;;;;;;23.27;13.63;;;3.00;99.90;;;;;;10358382;28;20231;-74
2022/01/27 18:12:33;;;;;;;26.40;14.60;;;3.00;99.90;;;;;;10352769;28;20225;-75
2022/01/27 18:17:34;;;;;;;20.73;13.57;;;3.10;99.90;;;;;;10357747;28;20229;-75
2022/01/27 18:22:34;;;;;;;21.77;13.57;;;3.10;99.90;;;;;;10352610;28;20249;-75
2022/01/27 18:27:35;;;;;;;20.60;13.03;;;3.10;99.90;;;;;;10361593;28;20283;-76
2022/01/27 18:32:36;;;;;;;16.80;12.10;;;3.20;99.90;;;;;;10351599;28;20225;-75
2022/01/27 18:37:36;;;;;;;15.80;10.70;;;3.20;99.90;;;;;;10350849;28;20233;-75
2022/01/27 18:42:38;;;;;;;13.37;9.23;;;3.30;99.90;;;;;;10351532;28;20217;-74
2022/01/27 18:47:39;;;;;;;11.87;8.60;;;3.30;99.90;;;;;;10347825;28;20229;-74
2022/01/27 18:52:40;;;;;;;10.67;8.50;;;3.40;99.90;;;;;;10356057;28;20228;-75
2022/01/27 18:57:40;;;;;;;10.90;7.83;;;3.50;99.90;;;;;;10354060;28;20228;-74
2022/01/27 19:02:41;;;;;;;11.80;8.33;;;3.50;99.90;;;;;;10357109;28;20234;-75
2022/01/27 19:07:43;;;;;;;11.10;7.63;;;3.60;99.90;;;;;;10355794;28;20218;-75
2022/01/27 19:12:45;;;;;;;12.57;8.73;;;3.60;99.90;;;;;;10359584;28;20229;-74
2022/01/27 19:17:46;;;;;;;8.47;7.07;;;3.60;99.90;;;;;;10347077;28;20283;-75
2022/01/27 19:22:47;;;;;;;8.83;6.67;;;3.70;99.90;;;;;;10355063;28;20260;-74
2022/01/27 19:27:47;;;;;;;8.37;6.63;;;3.70;99.90;;;;;;10353651;28;20243;-75
2022/01/27 19:32:50;;;;;;;8.10;6.23;;;3.70;99.90;;;;;;10346231;28;20214;-77
2022/01/27 19:37:52;;;;;;;8.17;6.10;;;3.60;99.90;;;;;;10357099;28;20281;-74
2022/01/27 19:42:53;;;;;;;7.33;5.53;;;3.70;99.90;;;;;;10348266;28;20272;-74
2022/01/27 19:48:04;;;;;;;6.80;5.60;;;3.70;99.90;;;;;;10353417;28;20266;-75
2022/01/27 19:53:05;;;;;;;8.43;5.57;;;3.70;99.90;;;;;;10339519;28;20275;-74
2022/01/27 19:58:06;;;;;;;5.50;4.90;;;3.70;99.90;;;;;;10353155;28;20244;-74
2022/01/27 20:03:07;;;;;;;5.80;4.90;;;3.70;99.90;;;;;;10350514;28;20238;-75
2022/01/27 20:08:08;;;;;;;7.57;4.97;;;3.70;99.90;;;;;;10355603;28;20264;-75
2022/01/27 20:13:09;;;;;;;6.00;4.93;;;3.70;99.90;;;;;;10350666;28;20256;-74
2022/01/27 20:18:11;;;;;;;5.93;5.33;;;3.80;99.90;;;;;;10344175;28;20228;-75
2022/01/27 20:23:11;;;;;;;6.53;4.80;;;3.80;99.90;;;;;;10346645;28;20332;-76
2022/01/27 20:28:12;;;;;;;7.20;5.27;;;3.80;99.90;;;;;;10348984;28;20367;-75
2022/01/27 20:33:13;;;;;;;5.60;4.80;;;3.90;99.90;;;;;;10354479;28;20221;-75
2022/01/27 20:38:14;;;;;;;5.83;4.87;;;3.80;99.90;;;;;;10346123;28;20225;-75
2022/01/27 20:43:15;;;;;;;5.27;4.77;;;3.80;99.90;;;;;;10350201;28;20221;-76
2022/01/27 20:48:21;;;;;;;5.27;4.47;;;3.90;99.90;;;;;;10352206;28;20517;-75
2022/01/27 20:53:26;;;;;;;5.67;4.50;;;3.90;99.90;;;;;;10352819;28;20710;-77
2022/01/27 20:58:27;;;;;;;6.20;4.77;;;4.00;99.90;;;;;;10362666;28;20248;-75
2022/01/27 21:03:29;;;;;;;5.93;4.80;;;4.00;99.90;;;;;;10363149;28;20222;-75
2022/01/27 21:08:32;;;;;;;6.03;4.93;;;4.00;99.90;;;;;;10352799;28;20213;-75
2022/01/27 21:13:32;;;;;;;6.90;5.87;;;4.00;99.90;;;;;;10347379;28;20230;-75
2022/01/27 21:18:35;;;;;;;6.47;5.60;;;4.10;99.90;;;;;;10346601;28;20295;-75
2022/01/27 21:23:42;;;;;;;6.50;5.77;;;4.10;99.90;;;;;;10363175;28;20221;-74
2022/01/27 21:28:43;;;;;;;7.37;5.73;;;4.10;99.90;;;;;;10352950;28;20240;-75
2022/01/27 21:33:43;;;;;;;8.67;6.57;;;4.00;99.90;;;;;;10344920;28;20229;-76
2022/01/27 21:38:44;;;;;;;7.70;6.30;;;4.00;99.90;;;;;;10361924;28;20263;-75
2022/01/27 21:43:45;;;;;;;7.30;6.20;;;4.00;99.90;;;;;;10354471;28;20817;-75
2022/01/27 21:48:47;;;;;;;7.03;6.10;;;4.10;99.90;;;;;;10333752;28;20286;-76
2022/01/27 21:53:47;;;;;;;7.23;6.20;;;4.10;99.90;;;;;;10358673;28;20233;-75
2022/01/27 21:58:48;;;;;;;7.20;6.50;;;4.10;99.90;;;;;;10351192;28;20313;-75
2022/01/27 22:03:48;;;;;;;7.80;6.53;;;4.20;99.90;;;;;;10350629;28;20589;-76
2022/01/27 22:08:49;;;;;;;7.07;5.80;;;4.20;99.90;;;;;;10349493;28;20626;-75
2022/01/27 22:13:53;;;;;;;8.43;7.37;;;4.10;99.90;;;;;;10359470;28;20217;-75
2022/01/27 22:18:53;;;;;;;7.70;6.43;;;4.10;99.90;;;;;;10359750;28;20234;-75
2022/01/27 22:23:54;;;;;;;7.33;6.17;;;4.00;99.90;;;;;;10358131;28;20256;-75
2022/01/27 22:28:55;;;;;;;8.03;6.67;;;4.00;99.90;;;;;;10357772;28;20225;-76
2022/01/27 22:33:55;;;;;;;7.60;6.53;;;4.00;99.90;;;;;;10350785;28;20232;-77
2022/01/27 22:38:56;;;;;;;8.27;6.60;;;3.90;99.90;;;;;;10344848;28;20226;-74
2022/01/27 22:43:59;;;;;;;7.07;6.13;;;3.80;99.90;;;;;;10359747;28;20493;-75
2022/01/27 22:49:00;;;;;;;7.83;6.67;;;3.60;99.90;;;;;;10359908;28;20238;-75
2022/01/27 22:54:01;;;;;;;8.40;7.30;;;3.50;99.90;;;;;;10361900;28;20232;-76
2022/01/27 22:59:04;;;;;;;8.00;6.93;;;3.50;99.90;;;;;;10365649;28;20257;-75
2022/01/27 23:04:05;;;;;;;8.03;6.87;;;3.50;99.90;;;;;;10343829;28;20315;-75
2022/01/27 23:09:06;;;;;;;8.63;7.23;;;3.50;99.90;;;;;;10348351;28;20325;-75
2022/01/27 23:14:21;;;;;;;8.77;7.13;;;3.30;99.90;;;;;;10351652;28;20239;-75
2022/01/27 23:19:40;;;;;;;9.13;7.70;;;3.20;99.90;;;;;;10350735;28;20227;-75
2022/01/27 23:24:46;;;;;;;10.13;7.87;;;3.10;99.90;;;;;;10363722;28;20252;-76
2022/01/27 23:29:50;;;;;;;9.77;7.90;;;3.10;99.90;;;;;;10357145;28;20229;-75
2022/01/27 23:34:51;;;;;;;9.37;7.00;;;3.20;99.90;;;;;;10351425;28;20229;-75
2022/01/27 23:40:10;;;;;;;8.57;7.33;;;3.40;99.90;;;;;;10347852;28;20218;-75
2022/01/27 23:45:24;;;;;;;8.37;7.47;;;3.50;99.90;;;;;;10352393;28;20222;-76
2022/01/27 23:50:33;;;;;;;11.00;8.80;;;3.50;99.90;;;;;;10347537;28;20313;-75
2022/01/27 23:55:54;;;;;;;10.03;7.70;;;3.40;99.90;;;;;;10346089;28;20237;-75
